KSBA/SBA METAR and TAF weather

Enter ICAO airport designator
Station Type Date Time Source
KSBA METAR 2023/02/01 11:53 UTC NOAA

KSBA 011153Z AUTO 00000KT 10SM CLR 03/01 A3014 RMK AO2 SLP206 T00330006 10072 20033 58002


Station Type Date Time Source
KSBA Decoded METAR 2023/02/01 11:53 UTC NOAA

SANTA BARBARA MUNICIPAL, CA, United States (KSBA) 34-26N 119-51W 3M
Feb 01, 2023 - 06:53 AM EST / 2023.02.01 1153 UTC
Wind: Calm:0
Visibility: 10 mile(s):0
Sky conditions: clear
Temperature: 37.9 F (3.3 C)
Dew Point: 33.1 F (0.6 C)
Relative Humidity: 82%
Pressure (altimeter): 30.14 in. Hg (1020 hPa)
Pressure tendency: 0.01 inches (0.2 hPa) lower than three hours ago
ob: KSBA 011153Z AUTO 00000KT 10SM CLR 03/01 A3014 RMK AO2 SLP206 T00330006 10072 20033 58002
cycle: 12

Station Type Date Time Source
KSBA TAF 2023/02/01 12:36 UTC NOAA

TAF KSBA 011135Z 0112/0212 VRB03KT P6SM SKC
FM011800 16006KT P6SM SKC
FM012300 24008KT P6SM SKC
FM020200 VRB03KT P6SM SKC

Example: see airport list